sensor_id;sensor_type;location;lat;lon;timestamp;P1;durP1;ratioP1;P2;durP2;ratioP2
26951;SDS011;14507;52.418;13.398;2023-05-10T00:00:11;9.38;;;5.60;;
26951;SDS011;14507;52.418;13.398;2023-05-10T00:02:37;11.20;;;5.80;;
26951;SDS011;14507;52.418;13.398;2023-05-10T00:05:03;12.10;;;6.20;;
26951;SDS011;14507;52.418;13.398;2023-05-10T00:07:29;9.90;;;6.13;;
26951;SDS011;14507;52.418;13.398;2023-05-10T00:09:55;9.98;;;5.35;;
26951;SDS011;14507;52.418;13.398;2023-05-10T00:12:21;9.57;;;5.65;;
26951;SDS011;14507;52.418;13.398;2023-05-10T00:14:47;10.75;;;5.60;;
26951;SDS011;14507;52.418;13.398;2023-05-10T00:17:12;17.10;;;5.75;;
26951;SDS011;14507;52.418;13.398;2023-05-10T00:19:38;12.27;;;5.97;;
26951;SDS011;14507;52.418;13.398;2023-05-10T00:22:04;19.80;;;6.07;;
26951;SDS011;14507;52.418;13.398;2023-05-10T00:24:29;11.55;;;5.93;;
26951;SDS011;14507;52.418;13.398;2023-05-10T00:26:55;11.23;;;6.00;;
26951;SDS011;14507;52.418;13.398;2023-05-10T00:29:20;11.52;;;5.50;;
26951;SDS011;14507;52.418;13.398;2023-05-10T00:31:46;14.85;;;6.25;;
26951;SDS011;14507;52.418;13.398;2023-05-10T00:34:12;9.30;;;5.95;;
26951;SDS011;14507;52.418;13.398;2023-05-10T00:36:37;10.50;;;5.80;;
26951;SDS011;14507;52.418;13.398;2023-05-10T00:39:03;12.95;;;5.93;;
26951;SDS011;14507;52.418;13.398;2023-05-10T00:41:29;13.43;;;6.15;;
26951;SDS011;14507;52.418;13.398;2023-05-10T00:43:57;11.45;;;5.60;;
26951;SDS011;14507;52.418;13.398;2023-05-10T00:46:23;9.75;;;5.43;;
26951;SDS011;14507;52.418;13.398;2023-05-10T00:48:50;9.25;;;5.63;;
26951;SDS011;14507;52.418;13.398;2023-05-10T00:51:16;9.65;;;5.80;;
26951;SDS011;14507;52.418;13.398;2023-05-10T00:53:43;8.93;;;5.82;;
26951;SDS011;14507;52.418;13.398;2023-05-10T00:58:37;9.90;;;5.70;;
26951;SDS011;14507;52.418;13.398;2023-05-10T01:01:03;11.05;;;5.70;;
26951;SDS011;14507;52.418;13.398;2023-05-10T01:03:30;12.40;;;6.45;;
26951;SDS011;14507;52.418;13.398;2023-05-10T01:05:57;11.48;;;5.40;;
26951;SDS011;14507;52.418;13.398;2023-05-10T01:08:23;9.02;;;5.28;;
26951;SDS011;14507;52.418;13.398;2023-05-10T01:10:49;9.20;;;5.55;;
26951;SDS011;14507;52.418;13.398;2023-05-10T01:13:37;8.80;;;5.70;;
26951;SDS011;14507;52.418;13.398;2023-05-10T01:16:02;10.95;;;6.18;;
26951;SDS011;14507;52.418;13.398;2023-05-10T01:18:32;11.13;;;5.88;;
26951;SDS011;14507;52.418;13.398;2023-05-10T01:34:47;12.70;;;6.35;;
26951;SDS011;14507;52.418;13.398;2023-05-10T01:37:20;11.50;;;6.22;;
26951;SDS011;14507;52.418;13.398;2023-05-10T01:39:54;10.60;;;6.38;;
26951;SDS011;14507;52.418;13.398;2023-05-10T01:42:25;10.52;;;6.30;;
26951;SDS011;14507;52.418;13.398;2023-05-10T01:47:36;10.55;;;6.28;;
26951;SDS011;14507;52.418;13.398;2023-05-10T01:50:06;12.05;;;6.10;;
26951;SDS011;14507;52.418;13.398;2023-05-10T01:52:44;10.98;;;6.93;;
26951;SDS011;14507;52.418;13.398;2023-05-10T01:55:23;12.80;;;6.38;;
26951;SDS011;14507;52.418;13.398;2023-05-10T01:57:56;13.85;;;6.65;;
26951;SDS011;14507;52.418;13.398;2023-05-10T02:00:35;10.15;;;5.35;;
26951;SDS011;14507;52.418;13.398;2023-05-10T02:03:04;14.35;;;6.25;;
26951;SDS011;14507;52.418;13.398;2023-05-10T02:05:32;10.50;;;6.00;;
26951;SDS011;14507;52.418;13.398;2023-05-10T02:07:59;11.52;;;6.50;;
26951;SDS011;14507;52.418;13.398;2023-05-10T02:12:54;14.50;;;6.55;;
26951;SDS011;14507;52.418;13.398;2023-05-10T02:15:23;12.88;;;6.38;;
26951;SDS011;14507;52.418;13.398;2023-05-10T02:17:50;12.15;;;6.97;;
26951;SDS011;14507;52.418;13.398;2023-05-10T02:20:19;12.30;;;6.65;;
26951;SDS011;14507;52.418;13.398;2023-05-10T02:22:47;12.55;;;6.50;;
26951;SDS011;14507;52.418;13.398;2023-05-10T02:25:15;12.05;;;7.07;;
26951;SDS011;14507;52.418;13.398;2023-05-10T02:27:42;11.52;;;6.68;;
26951;SDS011;14507;52.418;13.398;2023-05-10T02:30:10;11.40;;;7.38;;
26951;SDS011;14507;52.418;13.398;2023-05-10T02:32:37;13.15;;;6.97;;
26951;SDS011;14507;52.418;13.398;2023-05-10T02:35:04;10.93;;;6.88;;
26951;SDS011;14507;52.418;13.398;2023-05-10T02:37:31;11.35;;;6.85;;
26951;SDS011;14507;52.418;13.398;2023-05-10T02:39:58;13.68;;;6.60;;
26951;SDS011;14507;52.418;13.398;2023-05-10T02:42:27;13.48;;;7.22;;
26951;SDS011;14507;52.418;13.398;2023-05-10T02:44:59;14.10;;;6.90;;
26951;SDS011;14507;52.418;13.398;2023-05-10T02:47:27;13.07;;;6.38;;
26951;SDS011;14507;52.418;13.398;2023-05-10T02:49:54;11.00;;;6.70;;
26951;SDS011;14507;52.418;13.398;2023-05-10T02:52:24;10.27;;;6.63;;
26951;SDS011;14507;52.418;13.398;2023-05-10T02:54:55;13.55;;;7.22;;
26951;SDS011;14507;52.418;13.398;2023-05-10T02:57:25;16.17;;;7.03;;
26951;SDS011;14507;52.418;13.398;2023-05-10T02:59:53;12.75;;;7.00;;
26951;SDS011;14507;52.418;13.398;2023-05-10T03:02:20;13.65;;;7.32;;
26951;SDS011;14507;52.418;13.398;2023-05-10T03:04:46;12.60;;;6.72;;
26951;SDS011;14507;52.418;13.398;2023-05-10T03:07:12;11.68;;;7.28;;
26951;SDS011;14507;52.418;13.398;2023-05-10T03:09:38;9.82;;;6.18;;
26951;SDS011;14507;52.418;13.398;2023-05-10T03:12:15;12.98;;;6.72;;
26951;SDS011;14507;52.418;13.398;2023-05-10T03:17:41;12.30;;;7.18;;
26951;SDS011;14507;52.418;13.398;2023-05-10T03:20:26;12.18;;;6.25;;
26951;SDS011;14507;52.418;13.398;2023-05-10T03:23:00;13.85;;;7.00;;
26951;SDS011;14507;52.418;13.398;2023-05-10T03:25:32;11.50;;;6.35;;
26951;SDS011;14507;52.418;13.398;2023-05-10T03:27:59;11.90;;;6.53;;
26951;SDS011;14507;52.418;13.398;2023-05-10T03:30:26;12.75;;;6.43;;
26951;SDS011;14507;52.418;13.398;2023-05-10T03:32:53;11.20;;;6.90;;
26951;SDS011;14507;52.418;13.398;2023-05-10T03:35:19;13.57;;;6.57;;
26951;SDS011;14507;52.418;13.398;2023-05-10T03:37:45;14.02;;;6.40;;
26951;SDS011;14507;52.418;13.398;2023-05-10T03:40:10;11.77;;;6.07;;
26951;SDS011;14507;52.418;13.398;2023-05-10T03:42:36;14.80;;;6.53;;
26951;SDS011;14507;52.418;13.398;2023-05-10T03:45:02;16.48;;;6.50;;
26951;SDS011;14507;52.418;13.398;2023-05-10T03:47:28;13.15;;;6.70;;
26951;SDS011;14507;52.418;13.398;2023-05-10T03:49:54;12.02;;;6.07;;
26951;SDS011;14507;52.418;13.398;2023-05-10T03:52:20;13.68;;;6.30;;
26951;SDS011;14507;52.418;13.398;2023-05-10T03:54:46;12.48;;;6.13;;
26951;SDS011;14507;52.418;13.398;2023-05-10T03:57:11;11.45;;;6.75;;
26951;SDS011;14507;52.418;13.398;2023-05-10T03:59:37;15.48;;;6.40;;
26951;SDS011;14507;52.418;13.398;2023-05-10T04:02:03;11.30;;;6.57;;
26951;SDS011;14507;52.418;13.398;2023-05-10T04:04:28;11.93;;;6.45;;
26951;SDS011;14507;52.418;13.398;2023-05-10T04:06:54;11.75;;;6.53;;
26951;SDS011;14507;52.418;13.398;2023-05-10T04:09:20;12.05;;;6.35;;
26951;SDS011;14507;52.418;13.398;2023-05-10T04:11:45;14.27;;;6.32;;
26951;SDS011;14507;52.418;13.398;2023-05-10T04:14:11;13.20;;;5.80;;
26951;SDS011;14507;52.418;13.398;2023-05-10T04:16:37;13.60;;;6.10;;
26951;SDS011;14507;52.418;13.398;2023-05-10T04:19:02;15.27;;;5.82;;
26951;SDS011;14507;52.418;13.398;2023-05-10T04:21:28;14.25;;;6.57;;
26951;SDS011;14507;52.418;13.398;2023-05-10T04:23:54;14.88;;;6.00;;
26951;SDS011;14507;52.418;13.398;2023-05-10T04:26:20;14.18;;;6.22;;
26951;SDS011;14507;52.418;13.398;2023-05-10T04:28:46;11.13;;;5.38;;
26951;SDS011;14507;52.418;13.398;2023-05-10T04:31:12;18.27;;;6.60;;
26951;SDS011;14507;52.418;13.398;2023-05-10T04:33:38;10.95;;;5.05;;
26951;SDS011;14507;52.418;13.398;2023-05-10T04:36:04;11.85;;;6.07;;
26951;SDS011;14507;52.418;13.398;2023-05-10T04:38:30;9.35;;;5.70;;
26951;SDS011;14507;52.418;13.398;2023-05-10T04:41:05;12.57;;;5.53;;
26951;SDS011;14507;52.418;13.398;2023-05-10T04:43:32;9.25;;;5.50;;
26951;SDS011;14507;52.418;13.398;2023-05-10T04:45:58;9.80;;;5.55;;
26951;SDS011;14507;52.418;13.398;2023-05-10T04:48:24;10.20;;;4.90;;
26951;SDS011;14507;52.418;13.398;2023-05-10T04:50:49;9.10;;;5.20;;
26951;SDS011;14507;52.418;13.398;2023-05-10T04:53:15;10.73;;;5.40;;
26951;SDS011;14507;52.418;13.398;2023-05-10T04:55:41;12.63;;;5.82;;
26951;SDS011;14507;52.418;13.398;2023-05-10T04:58:07;10.38;;;5.22;;
26951;SDS011;14507;52.418;13.398;2023-05-10T05:00:33;7.93;;;4.63;;
26951;SDS011;14507;52.418;13.398;2023-05-10T05:02:58;11.27;;;5.20;;
26951;SDS011;14507;52.418;13.398;2023-05-10T05:05:24;12.95;;;5.22;;
26951;SDS011;14507;52.418;13.398;2023-05-10T05:07:50;10.68;;;4.55;;
26951;SDS011;14507;52.418;13.398;2023-05-10T05:10:16;10.57;;;5.00;;
26951;SDS011;14507;52.418;13.398;2023-05-10T05:12:41;8.50;;;4.63;;
26951;SDS011;14507;52.418;13.398;2023-05-10T05:15:07;11.80;;;4.15;;
26951;SDS011;14507;52.418;13.398;2023-05-10T05:17:34;11.03;;;4.90;;
26951;SDS011;14507;52.418;13.398;2023-05-10T05:20:00;9.70;;;4.43;;
26951;SDS011;14507;52.418;13.398;2023-05-10T05:22:25;9.60;;;4.53;;
26951;SDS011;14507;52.418;13.398;2023-05-10T05:24:55;10.65;;;4.38;;
26951;SDS011;14507;52.418;13.398;2023-05-10T05:27:21;6.80;;;4.03;;
26951;SDS011;14507;52.418;13.398;2023-05-10T05:29:49;10.85;;;4.78;;
26951;SDS011;14507;52.418;13.398;2023-05-10T05:32:16;9.75;;;4.13;;
26951;SDS011;14507;52.418;13.398;2023-05-10T05:34:41;7.88;;;3.83;;
26951;SDS011;14507;52.418;13.398;2023-05-10T05:37:12;11.93;;;3.97;;
26951;SDS011;14507;52.418;13.398;2023-05-10T05:39:42;14.57;;;4.22;;
26951;SDS011;14507;52.418;13.398;2023-05-10T05:42:08;10.68;;;4.03;;
26951;SDS011;14507;52.418;13.398;2023-05-10T05:44:34;8.80;;;3.78;;
26951;SDS011;14507;52.418;13.398;2023-05-10T05:47:00;8.18;;;3.40;;
26951;SDS011;14507;52.418;13.398;2023-05-10T05:49:26;9.05;;;3.45;;
26951;SDS011;14507;52.418;13.398;2023-05-10T05:51:51;5.60;;;3.45;;
26951;SDS011;14507;52.418;13.398;2023-05-10T05:54:17;8.65;;;3.70;;
26951;SDS011;14507;52.418;13.398;2023-05-10T05:56:42;6.40;;;3.42;;
26951;SDS011;14507;52.418;13.398;2023-05-10T05:59:09;6.45;;;3.40;;
26951;SDS011;14507;52.418;13.398;2023-05-10T06:01:35;6.38;;;3.28;;
26951;SDS011;14507;52.418;13.398;2023-05-10T06:04:01;5.65;;;3.17;;
26951;SDS011;14507;52.418;13.398;2023-05-10T06:06:27;7.80;;;3.55;;
26951;SDS011;14507;52.418;13.398;2023-05-10T06:08:53;11.77;;;3.60;;
26951;SDS011;14507;52.418;13.398;2023-05-10T06:11:18;5.80;;;2.88;;
26951;SDS011;14507;52.418;13.398;2023-05-10T06:13:46;8.05;;;3.22;;
26951;SDS011;14507;52.418;13.398;2023-05-10T06:16:12;5.68;;;3.05;;
26951;SDS011;14507;52.418;13.398;2023-05-10T06:18:38;7.15;;;3.00;;
26951;SDS011;14507;52.418;13.398;2023-05-10T06:21:04;4.78;;;2.90;;
26951;SDS011;14507;52.418;13.398;2023-05-10T06:23:30;7.88;;;3.00;;
26951;SDS011;14507;52.418;13.398;2023-05-10T06:25:55;7.50;;;3.20;;
26951;SDS011;14507;52.418;13.398;2023-05-10T06:28:21;10.43;;;3.13;;
26951;SDS011;14507;52.418;13.398;2023-05-10T06:30:46;11.52;;;3.22;;
26951;SDS011;14507;52.418;13.398;2023-05-10T06:33:12;6.70;;;2.92;;
26951;SDS011;14507;52.418;13.398;2023-05-10T06:35:38;8.95;;;2.78;;
26951;SDS011;14507;52.418;13.398;2023-05-10T06:38:04;8.85;;;3.00;;
26951;SDS011;14507;52.418;13.398;2023-05-10T06:40:30;3.55;;;2.30;;
26951;SDS011;14507;52.418;13.398;2023-05-10T06:42:57;8.25;;;2.80;;
26951;SDS011;14507;52.418;13.398;2023-05-10T06:45:23;9.48;;;2.90;;
26951;SDS011;14507;52.418;13.398;2023-05-10T06:47:49;8.20;;;2.20;;
26951;SDS011;14507;52.418;13.398;2023-05-10T06:50:14;7.25;;;2.80;;
26951;SDS011;14507;52.418;13.398;2023-05-10T06:52:40;4.95;;;2.53;;
26951;SDS011;14507;52.418;13.398;2023-05-10T06:55:06;6.50;;;2.80;;
26951;SDS011;14507;52.418;13.398;2023-05-10T06:57:32;5.03;;;2.28;;
26951;SDS011;14507;52.418;13.398;2023-05-10T06:59:58;7.05;;;2.45;;
26951;SDS011;14507;52.418;13.398;2023-05-10T07:02:24;7.25;;;2.60;;
26951;SDS011;14507;52.418;13.398;2023-05-10T07:04:49;5.63;;;2.65;;
26951;SDS011;14507;52.418;13.398;2023-05-10T07:07:16;5.47;;;2.63;;
26951;SDS011;14507;52.418;13.398;2023-05-10T07:09:42;5.60;;;2.10;;
26951;SDS011;14507;52.418;13.398;2023-05-10T07:12:08;8.18;;;2.60;;
26951;SDS011;14507;52.418;13.398;2023-05-10T07:14:33;4.63;;;2.90;;
26951;SDS011;14507;52.418;13.398;2023-05-10T07:16:59;6.07;;;2.60;;
26951;SDS011;14507;52.418;13.398;2023-05-10T07:19:25;5.93;;;2.60;;
26951;SDS011;14507;52.418;13.398;2023-05-10T07:21:50;8.02;;;2.50;;
26951;SDS011;14507;52.418;13.398;2023-05-10T07:24:16;6.63;;;2.53;;
26951;SDS011;14507;52.418;13.398;2023-05-10T07:26:42;4.32;;;2.42;;
26951;SDS011;14507;52.418;13.398;2023-05-10T07:29:07;6.93;;;2.95;;
26951;SDS011;14507;52.418;13.398;2023-05-10T07:31:33;4.78;;;2.53;;
26951;SDS011;14507;52.418;13.398;2023-05-10T07:33:59;6.43;;;2.05;;
26951;SDS011;14507;52.418;13.398;2023-05-10T07:36:24;5.57;;;2.40;;
26951;SDS011;14507;52.418;13.398;2023-05-10T07:38:50;4.88;;;2.28;;
26951;SDS011;14507;52.418;13.398;2023-05-10T07:41:16;6.57;;;2.25;;
26951;SDS011;14507;52.418;13.398;2023-05-10T07:43:41;3.50;;;1.88;;
26951;SDS011;14507;52.418;13.398;2023-05-10T07:46:07;7.75;;;2.33;;
26951;SDS011;14507;52.418;13.398;2023-05-10T07:48:34;8.57;;;2.30;;
26951;SDS011;14507;52.418;13.398;2023-05-10T07:51:01;4.25;;;2.20;;
26951;SDS011;14507;52.418;13.398;2023-05-10T07:53:27;5.78;;;2.53;;
26951;SDS011;14507;52.418;13.398;2023-05-10T07:55:59;7.25;;;2.33;;
26951;SDS011;14507;52.418;13.398;2023-05-10T07:58:44;5.00;;;2.17;;
26951;SDS011;14507;52.418;13.398;2023-05-10T08:01:09;8.52;;;2.47;;
26951;SDS011;14507;52.418;13.398;2023-05-10T08:03:35;7.65;;;2.53;;
26951;SDS011;14507;52.418;13.398;2023-05-10T08:06:00;5.82;;;2.00;;
26951;SDS011;14507;52.418;13.398;2023-05-10T08:08:26;6.28;;;2.03;;
26951;SDS011;14507;52.418;13.398;2023-05-10T08:10:52;4.25;;;2.08;;
26951;SDS011;14507;52.418;13.398;2023-05-10T08:13:17;8.02;;;2.28;;
26951;SDS011;14507;52.418;13.398;2023-05-10T08:15:43;4.90;;;2.40;;
26951;SDS011;14507;52.418;13.398;2023-05-10T08:18:08;6.32;;;2.25;;
26951;SDS011;14507;52.418;13.398;2023-05-10T08:20:34;5.30;;;2.30;;
26951;SDS011;14507;52.418;13.398;2023-05-10T08:23:00;4.75;;;2.10;;
26951;SDS011;14507;52.418;13.398;2023-05-10T08:25:25;4.95;;;2.30;;
26951;SDS011;14507;52.418;13.398;2023-05-10T08:27:51;3.67;;;2.10;;
26951;SDS011;14507;52.418;13.398;2023-05-10T08:30:16;7.93;;;2.70;;
26951;SDS011;14507;52.418;13.398;2023-05-10T08:32:42;6.55;;;2.15;;
26951;SDS011;14507;52.418;13.398;2023-05-10T08:35:08;9.68;;;2.67;;
26951;SDS011;14507;52.418;13.398;2023-05-10T08:37:33;5.65;;;2.20;;
26951;SDS011;14507;52.418;13.398;2023-05-10T08:39:59;6.85;;;2.50;;
26951;SDS011;14507;52.418;13.398;2023-05-10T08:42:25;5.05;;;2.30;;
26951;SDS011;14507;52.418;13.398;2023-05-10T08:44:53;6.40;;;2.40;;
26951;SDS011;14507;52.418;13.398;2023-05-10T08:47:19;5.25;;;2.15;;
26951;SDS011;14507;52.418;13.398;2023-05-10T08:49:46;11.18;;;2.40;;
26951;SDS011;14507;52.418;13.398;2023-05-10T08:52:16;5.03;;;2.17;;
26951;SDS011;14507;52.418;13.398;2023-05-10T08:54:43;5.63;;;2.60;;
26951;SDS011;14507;52.418;13.398;2023-05-10T08:57:09;4.72;;;2.15;;
26951;SDS011;14507;52.418;13.398;2023-05-10T08:59:35;5.88;;;2.10;;
26951;SDS011;14507;52.418;13.398;2023-05-10T09:02:04;8.15;;;2.30;;
26951;SDS011;14507;52.418;13.398;2023-05-10T09:04:30;9.23;;;2.60;;
26951;SDS011;14507;52.418;13.398;2023-05-10T09:06:56;3.00;;;1.80;;
26951;SDS011;14507;52.418;13.398;2023-05-10T09:09:22;13.20;;;3.00;;
26951;SDS011;14507;52.418;13.398;2023-05-10T09:11:50;4.80;;;2.15;;
26951;SDS011;14507;52.418;13.398;2023-05-10T09:14:17;7.57;;;2.30;;
26951;SDS011;14507;52.418;13.398;2023-05-10T09:16:44;5.57;;;2.50;;
26951;SDS011;14507;52.418;13.398;2023-05-10T09:19:10;5.45;;;2.22;;
26951;SDS011;14507;52.418;13.398;2023-05-10T09:21:36;8.02;;;2.50;;
26951;SDS011;14507;52.418;13.398;2023-05-10T09:24:06;4.47;;;2.07;;
26951;SDS011;14507;52.418;13.398;2023-05-10T09:26:33;6.80;;;2.70;;
26951;SDS011;14507;52.418;13.398;2023-05-10T09:29:00;9.10;;;2.30;;
26951;SDS011;14507;52.418;13.398;2023-05-10T09:31:42;8.13;;;2.08;;
26951;SDS011;14507;52.418;13.398;2023-05-10T09:34:08;3.78;;;2.17;;
26951;SDS011;14507;52.418;13.398;2023-05-10T09:36:34;3.88;;;2.00;;
26951;SDS011;14507;52.418;13.398;2023-05-10T09:38:59;5.97;;;2.40;;
26951;SDS011;14507;52.418;13.398;2023-05-10T09:41:25;7.22;;;1.95;;
26951;SDS011;14507;52.418;13.398;2023-05-10T09:43:55;5.47;;;2.25;;
26951;SDS011;14507;52.418;13.398;2023-05-10T09:46:21;7.45;;;1.80;;
26951;SDS011;14507;52.418;13.398;2023-05-10T09:48:47;6.10;;;2.33;;
26951;SDS011;14507;52.418;13.398;2023-05-10T09:51:20;5.75;;;2.00;;
26951;SDS011;14507;52.418;13.398;2023-05-10T09:53:45;6.45;;;2.35;;
26951;SDS011;14507;52.418;13.398;2023-05-10T09:56:11;5.60;;;1.92;;
26951;SDS011;14507;52.418;13.398;2023-05-10T09:58:37;5.88;;;2.47;;
26951;SDS011;14507;52.418;13.398;2023-05-10T10:01:10;9.02;;;2.40;;
26951;SDS011;14507;52.418;13.398;2023-05-10T10:03:41;7.25;;;2.33;;
26951;SDS011;14507;52.418;13.398;2023-05-10T10:06:07;4.93;;;2.20;;
26951;SDS011;14507;52.418;13.398;2023-05-10T10:08:33;7.65;;;2.50;;
26951;SDS011;14507;52.418;13.398;2023-05-10T10:10:59;12.10;;;2.65;;
26951;SDS011;14507;52.418;13.398;2023-05-10T10:13:26;6.22;;;2.40;;
26951;SDS011;14507;52.418;13.398;2023-05-10T10:15:52;5.57;;;2.10;;
26951;SDS011;14507;52.418;13.398;2023-05-10T10:18:19;4.75;;;2.13;;
26951;SDS011;14507;52.418;13.398;2023-05-10T10:20:48;5.65;;;2.30;;
26951;SDS011;14507;52.418;13.398;2023-05-10T10:23:14;4.15;;;2.30;;
26951;SDS011;14507;52.418;13.398;2023-05-10T10:25:40;5.15;;;2.50;;
26951;SDS011;14507;52.418;13.398;2023-05-10T10:28:13;5.25;;;2.28;;
26951;SDS011;14507;52.418;13.398;2023-05-10T10:31:01;7.18;;;2.63;;
26951;SDS011;14507;52.418;13.398;2023-05-10T10:36:26;4.53;;;2.10;;
26951;SDS011;14507;52.418;13.398;2023-05-10T10:38:56;10.73;;;2.42;;
26951;SDS011;14507;52.418;13.398;2023-05-10T10:41:30;9.05;;;2.65;;
26951;SDS011;14507;52.418;13.398;2023-05-10T10:49:34;4.93;;;2.10;;
26951;SDS011;14507;52.418;13.398;2023-05-10T10:55:19;6.78;;;2.10;;
26951;SDS011;14507;52.418;13.398;2023-05-10T10:57:44;3.55;;;2.17;;
26951;SDS011;14507;52.418;13.398;2023-05-10T11:02:56;8.02;;;2.22;;
26951;SDS011;14507;52.418;13.398;2023-05-10T11:08:10;7.60;;;2.00;;
26951;SDS011;14507;52.418;13.398;2023-05-10T11:10:39;5.25;;;2.20;;
26951;SDS011;14507;52.418;13.398;2023-05-10T11:13:14;8.10;;;2.40;;
26951;SDS011;14507;52.418;13.398;2023-05-10T11:15:40;4.43;;;2.30;;
26951;SDS011;14507;52.418;13.398;2023-05-10T11:18:20;9.07;;;2.10;;
26951;SDS011;14507;52.418;13.398;2023-05-10T11:21:01;5.93;;;1.85;;
26951;SDS011;14507;52.418;13.398;2023-05-10T11:23:52;5.75;;;2.08;;
26951;SDS011;14507;52.418;13.398;2023-05-10T11:26:24;4.35;;;1.85;;
26951;SDS011;14507;52.418;13.398;2023-05-10T11:28:51;7.45;;;2.25;;
26951;SDS011;14507;52.418;13.398;2023-05-10T11:31:20;5.13;;;1.95;;
26951;SDS011;14507;52.418;13.398;2023-05-10T11:33:53;5.63;;;1.90;;
26951;SDS011;14507;52.418;13.398;2023-05-10T11:36:27;5.85;;;2.05;;
26951;SDS011;14507;52.418;13.398;2023-05-10T11:38:54;3.28;;;1.95;;
26951;SDS011;14507;52.418;13.398;2023-05-10T11:41:21;10.38;;;2.03;;
26951;SDS011;14507;52.418;13.398;2023-05-10T11:43:49;5.47;;;2.22;;
26951;SDS011;14507;52.418;13.398;2023-05-10T11:46:18;5.40;;;2.33;;
26951;SDS011;14507;52.418;13.398;2023-05-10T11:48:45;9.88;;;2.38;;
26951;SDS011;14507;52.418;13.398;2023-05-10T11:51:14;6.07;;;2.55;;
26951;SDS011;14507;52.418;13.398;2023-05-10T11:53:40;5.03;;;1.90;;
26951;SDS011;14507;52.418;13.398;2023-05-10T11:56:07;3.58;;;2.00;;
26951;SDS011;14507;52.418;13.398;2023-05-10T11:58:34;3.65;;;1.90;;
26951;SDS011;14507;52.418;13.398;2023-05-10T12:01:01;5.68;;;1.95;;
26951;SDS011;14507;52.418;13.398;2023-05-10T12:03:28;3.33;;;2.20;;
26951;SDS011;14507;52.418;13.398;2023-05-10T12:05:55;5.65;;;2.05;;
26951;SDS011;14507;52.418;13.398;2023-05-10T12:08:22;6.25;;;2.75;;
26951;SDS011;14507;52.418;13.398;2023-05-10T12:10:49;5.35;;;1.92;;
26951;SDS011;14507;52.418;13.398;2023-05-10T12:13:15;6.25;;;2.13;;
26951;SDS011;14507;52.418;13.398;2023-05-10T12:15:41;10.02;;;2.33;;
26951;SDS011;14507;52.418;13.398;2023-05-10T12:18:13;7.60;;;2.20;;
26951;SDS011;14507;52.418;13.398;2023-05-10T12:20:40;6.57;;;2.22;;
26951;SDS011;14507;52.418;13.398;2023-05-10T12:23:07;8.48;;;2.60;;
26951;SDS011;14507;52.418;13.398;2023-05-10T12:25:34;2.80;;;1.80;;
26951;SDS011;14507;52.418;13.398;2023-05-10T12:28:05;4.50;;;2.35;;
26951;SDS011;14507;52.418;13.398;2023-05-10T12:30:32;4.57;;;2.33;;
26951;SDS011;14507;52.418;13.398;2023-05-10T12:33:07;9.85;;;1.88;;
26951;SDS011;14507;52.418;13.398;2023-05-10T12:41:03;4.80;;;2.00;;
26951;SDS011;14507;52.418;13.398;2023-05-10T12:43:30;5.75;;;2.05;;
26951;SDS011;14507;52.418;13.398;2023-05-10T12:45:56;4.32;;;2.15;;
26951;SDS011;14507;52.418;13.398;2023-05-10T12:48:22;7.97;;;2.25;;
26951;SDS011;14507;52.418;13.398;2023-05-10T12:50:48;5.38;;;2.22;;
26951;SDS011;14507;52.418;13.398;2023-05-10T12:53:14;5.10;;;2.35;;
26951;SDS011;14507;52.418;13.398;2023-05-10T12:55:41;5.95;;;2.00;;
26951;SDS011;14507;52.418;13.398;2023-05-10T12:58:07;7.07;;;2.10;;
26951;SDS011;14507;52.418;13.398;2023-05-10T13:00:32;5.43;;;2.33;;
26951;SDS011;14507;52.418;13.398;2023-05-10T13:02:58;5.43;;;2.25;;
26951;SDS011;14507;52.418;13.398;2023-05-10T13:05:24;4.68;;;2.05;;
26951;SDS011;14507;52.418;13.398;2023-05-10T13:07:50;4.88;;;2.40;;
26951;SDS011;14507;52.418;13.398;2023-05-10T13:10:15;10.18;;;2.00;;
26951;SDS011;14507;52.418;13.398;2023-05-10T13:12:41;6.85;;;2.40;;
26951;SDS011;14507;52.418;13.398;2023-05-10T13:15:07;5.60;;;2.10;;
26951;SDS011;14507;52.418;13.398;2023-05-10T13:17:33;3.67;;;2.13;;
26951;SDS011;14507;52.418;13.398;2023-05-10T13:19:59;4.40;;;2.00;;
26951;SDS011;14507;52.418;13.398;2023-05-10T13:22:24;3.85;;;2.10;;
26951;SDS011;14507;52.418;13.398;2023-05-10T13:24:50;6.55;;;2.08;;
26951;SDS011;14507;52.418;13.398;2023-05-10T13:27:16;4.32;;;2.20;;
26951;SDS011;14507;52.418;13.398;2023-05-10T13:29:41;6.93;;;2.10;;
26951;SDS011;14507;52.418;13.398;2023-05-10T13:32:07;3.80;;;1.90;;
26951;SDS011;14507;52.418;13.398;2023-05-10T13:34:33;4.72;;;1.85;;
26951;SDS011;14507;52.418;13.398;2023-05-10T13:37:00;4.93;;;2.20;;
26951;SDS011;14507;52.418;13.398;2023-05-10T13:39:26;4.60;;;2.08;;
26951;SDS011;14507;52.418;13.398;2023-05-10T13:41:52;7.07;;;2.22;;
26951;SDS011;14507;52.418;13.398;2023-05-10T13:44:17;5.47;;;2.05;;
26951;SDS011;14507;52.418;13.398;2023-05-10T13:46:45;4.70;;;1.80;;
26951;SDS011;14507;52.418;13.398;2023-05-10T13:49:11;5.07;;;1.75;;
26951;SDS011;14507;52.418;13.398;2023-05-10T13:51:37;5.72;;;1.90;;
26951;SDS011;14507;52.418;13.398;2023-05-10T13:54:02;6.50;;;2.10;;
26951;SDS011;14507;52.418;13.398;2023-05-10T13:56:28;9.70;;;2.15;;
26951;SDS011;14507;52.418;13.398;2023-05-10T13:58:54;2.85;;;1.70;;
26951;SDS011;14507;52.418;13.398;2023-05-10T14:01:21;5.75;;;2.10;;
26951;SDS011;14507;52.418;13.398;2023-05-10T14:03:46;5.68;;;2.30;;
26951;SDS011;14507;52.418;13.398;2023-05-10T14:06:13;11.50;;;2.33;;
26951;SDS011;14507;52.418;13.398;2023-05-10T14:08:38;5.38;;;1.75;;
26951;SDS011;14507;52.418;13.398;2023-05-10T14:11:04;3.72;;;1.80;;
26951;SDS011;14507;52.418;13.398;2023-05-10T14:13:30;5.28;;;2.60;;
26951;SDS011;14507;52.418;13.398;2023-05-10T14:15:55;3.22;;;1.98;;
26951;SDS011;14507;52.418;13.398;2023-05-10T14:18:21;4.15;;;1.90;;
26951;SDS011;14507;52.418;13.398;2023-05-10T14:20:47;6.47;;;2.35;;
26951;SDS011;14507;52.418;13.398;2023-05-10T14:23:12;4.20;;;2.00;;
26951;SDS011;14507;52.418;13.398;2023-05-10T14:25:41;6.18;;;1.83;;
26951;SDS011;14507;52.418;13.398;2023-05-10T14:28:07;5.15;;;2.20;;
26951;SDS011;14507;52.418;13.398;2023-05-10T14:30:32;8.55;;;2.20;;
26951;SDS011;14507;52.418;13.398;2023-05-10T14:32:59;5.30;;;2.45;;
26951;SDS011;14507;52.418;13.398;2023-05-10T14:35:27;9.02;;;2.40;;
26951;SDS011;14507;52.418;13.398;2023-05-10T14:37:55;4.95;;;1.90;;
26951;SDS011;14507;52.418;13.398;2023-05-10T14:40:21;5.50;;;1.90;;
26951;SDS011;14507;52.418;13.398;2023-05-10T14:42:47;6.30;;;2.10;;
26951;SDS011;14507;52.418;13.398;2023-05-10T14:45:14;6.72;;;2.10;;
26951;SDS011;14507;52.418;13.398;2023-05-10T14:47:40;6.43;;;2.30;;
26951;SDS011;14507;52.418;13.398;2023-05-10T14:50:06;5.78;;;2.15;;
26951;SDS011;14507;52.418;13.398;2023-05-10T14:52:32;6.30;;;2.10;;
26951;SDS011;14507;52.418;13.398;2023-05-10T14:54:57;5.90;;;2.05;;
26951;SDS011;14507;52.418;13.398;2023-05-10T14:57:25;3.42;;;1.83;;
26951;SDS011;14507;52.418;13.398;2023-05-10T14:59:51;8.13;;;2.13;;
26951;SDS011;14507;52.418;13.398;2023-05-10T15:02:16;3.30;;;1.90;;
26951;SDS011;14507;52.418;13.398;2023-05-10T15:04:42;3.60;;;2.03;;
26951;SDS011;14507;52.418;13.398;2023-05-10T15:07:07;4.68;;;1.90;;
26951;SDS011;14507;52.418;13.398;2023-05-10T15:09:33;7.22;;;2.60;;
26951;SDS011;14507;52.418;13.398;2023-05-10T15:11:58;5.07;;;2.30;;
26951;SDS011;14507;52.418;13.398;2023-05-10T15:14:24;9.20;;;2.20;;
26951;SDS011;14507;52.418;13.398;2023-05-10T15:16:50;3.47;;;1.90;;